Time;durP1;ratioP1;P1;durP2;ratioP2;P2;SDS_P1;SDS_P2;PMS_P1;PMS_P2;Temp;Humidity;BMP_temperature;BMP_pressure;BME280_temperature;BME280_humidity;BME280_pressure;Samples;Min_cycle;Max_cycle;Signal;HPM_P1;HPM_P2
2021/06/07 00:07:13;;;;;;;80.60;47.00;;;16.70;99.90;;;;;;4954570;29;20051;-87
2021/06/07 00:09:41;;;;;;;86.30;47.38;;;16.70;99.90;;;;;;4954927;29;20137;-87
2021/06/07 00:12:15;;;;;;;83.32;46.50;;;16.60;99.90;;;;;;4955020;28;20078;-87
2021/06/07 00:14:43;;;;;;;84.28;47.58;;;16.60;99.90;;;;;;4955168;29;20043;-87
2021/06/07 00:17:10;;;;;;;72.53;43.60;;;16.60;99.90;;;;;;4938841;29;20138;-88
2021/06/07 00:19:39;;;;;;;77.82;44.33;;;16.60;99.90;;;;;;4985085;28;20034;-88
2021/06/07 00:22:07;;;;;;;77.13;44.92;;;16.60;99.90;;;;;;4977829;28;20047;-88
2021/06/07 00:24:35;;;;;;;71.82;42.47;;;16.60;99.90;;;;;;4954847;29;20416;-87
2021/06/07 00:27:02;;;;;;;78.20;44.90;;;16.60;99.90;;;;;;4953975;29;20053;-88
2021/06/07 00:29:29;;;;;;;77.32;46.08;;;16.60;99.90;;;;;;4954561;29;20053;-88
2021/06/07 00:31:56;;;;;;;76.22;43.97;;;16.50;99.90;;;;;;4954808;29;20268;-87
2021/06/07 00:34:23;;;;;;;78.38;46.83;;;16.50;99.90;;;;;;4954732;28;20102;-88
2021/06/07 00:36:49;;;;;;;77.03;43.80;;;16.50;99.90;;;;;;4954707;29;20142;-88
2021/06/07 00:39:17;;;;;;;81.82;46.05;;;16.50;99.90;;;;;;4938974;29;20138;-88
2021/06/07 00:41:46;;;;;;;74.00;42.40;;;16.50;99.90;;;;;;4954664;29;20047;-89
2021/06/07 00:44:16;;;;;;;81.10;44.72;;;16.50;99.90;;;;;;4954980;29;20059;-88
2021/06/07 00:46:44;;;;;;;76.35;43.20;;;16.50;99.90;;;;;;4955197;29;20142;-88
2021/06/07 00:49:11;;;;;;;75.65;42.83;;;16.60;99.90;;;;;;4955572;29;20074;-88
2021/06/07 00:51:40;;;;;;;76.50;43.55;;;16.50;99.90;;;;;;4954753;28;20484;-88
2021/06/07 00:54:07;;;;;;;66.75;39.13;;;16.50;99.90;;;;;;4954599;29;20092;-87
2021/06/07 00:56:34;;;;;;;74.55;44.33;;;16.50;99.90;;;;;;4954406;29;20138;-88
2021/06/07 00:59:01;;;;;;;78.07;44.60;;;16.40;99.90;;;;;;4954162;29;20130;-88
2021/06/07 01:01:28;;;;;;;78.85;42.97;;;16.40;99.90;;;;;;4954593;29;20060;-88
2021/06/07 01:03:58;;;;;;;76.22;42.63;;;16.40;99.90;;;;;;4954668;29;20047;-88
2021/06/07 01:06:26;;;;;;;80.13;44.63;;;16.40;99.90;;;;;;4960753;28;20149;-88
2021/06/07 01:08:53;;;;;;;79.88;44.20;;;16.40;99.90;;;;;;4973733;28;20134;-88
2021/06/07 01:11:21;;;;;;;73.78;43.83;;;16.40;99.90;;;;;;4973529;28;20050;-88
2021/06/07 01:13:49;;;;;;;77.47;42.58;;;16.50;99.90;;;;;;4973680;28;20066;-88
2021/06/07 01:16:17;;;;;;;75.45;42.65;;;16.40;99.90;;;;;;4973528;28;20055;-88
2021/06/07 01:18:44;;;;;;;75.80;43.53;;;16.40;99.90;;;;;;4973860;28;20047;-88
2021/06/07 01:21:13;;;;;;;74.28;42.53;;;16.40;99.90;;;;;;4973500;28;20061;-89
2021/06/07 01:23:43;;;;;;;75.13;43.65;;;16.30;99.90;;;;;;4973600;28;20050;-88
2021/06/07 01:26:11;;;;;;;71.28;41.05;;;16.30;99.90;;;;;;4973498;28;20062;-88
2021/06/07 01:28:39;;;;;;;71.70;41.17;;;16.30;99.90;;;;;;4973647;28;20057;-88
2021/06/07 01:31:09;;;;;;;83.82;44.58;;;16.30;99.90;;;;;;4963773;28;20065;-88
2021/06/07 01:33:42;;;;;;;85.07;45.20;;;16.30;99.90;;;;;;4977465;28;20047;-88
2021/06/07 01:36:09;;;;;;;;;;;16.30;99.90;;;;;;4978144;28;20509;-88
2021/06/07 01:38:37;;;;;;;69.38;40.75;;;16.30;99.90;;;;;;4995195;28;19913;-88
2021/06/07 01:41:16;;;;;;;75.03;40.88;;;16.30;99.90;;;;;;4979717;28;20046;-88
2021/06/07 01:43:43;;;;;;;78.03;43.05;;;16.40;99.90;;;;;;4961344;28;20464;-87
2021/06/07 01:46:10;;;;;;;73.95;42.00;;;16.30;99.90;;;;;;4977357;28;20137;-89
2021/06/07 01:48:37;;;;;;;70.47;40.33;;;16.30;99.90;;;;;;4977212;28;20150;-89
2021/06/07 01:51:06;;;;;;;74.45;42.78;;;16.30;99.90;;;;;;4960887;28;20057;-88
2021/06/07 01:53:34;;;;;;;66.18;39.33;;;16.40;99.90;;;;;;4973778;28;20407;-88
2021/06/07 01:56:05;;;;;;;85.18;43.92;;;16.40;99.90;;;;;;4969220;28;20492;-87
2021/06/07 01:58:33;;;;;;;70.57;42.08;;;16.30;99.90;;;;;;4961074;28;20057;-89
2021/06/07 02:01:05;;;;;;;83.20;45.38;;;16.20;99.90;;;;;;4960742;28;20068;-89
2021/06/07 02:03:31;;;;;;;78.38;44.50;;;16.10;99.90;;;;;;4960651;28;20046;-89
2021/06/07 02:06:01;;;;;;;80.85;44.97;;;16.10;99.90;;;;;;4960459;28;20061;-88
2021/06/07 02:08:31;;;;;;;76.93;42.95;;;16.10;99.90;;;;;;4976691;28;20097;-89
2021/06/07 02:11:09;;;;;;;75.63;43.95;;;16.10;99.90;;;;;;4976706;28;20101;-89
2021/06/07 02:13:36;;;;;;;84.05;44.53;;;16.10;99.90;;;;;;4960611;28;20514;-89
2021/06/07 02:16:08;;;;;;;88.18;45.08;;;16.10;99.90;;;;;;4976498;28;20385;-88
2021/06/07 02:18:37;;;;;;;81.75;44.00;;;16.10;99.90;;;;;;4976526;28;20051;-88
2021/06/07 02:21:06;;;;;;;101.70;47.15;;;16.10;99.90;;;;;;4976608;28;20054;-88
2021/06/07 02:23:33;;;;;;;80.97;42.92;;;16.10;99.90;;;;;;4976690;28;20054;-88
2021/06/07 02:26:00;;;;;;;78.07;44.25;;;16.10;99.90;;;;;;4960087;28;20517;-88
2021/06/07 02:28:27;;;;;;;77.43;42.95;;;16.20;99.90;;;;;;4976197;28;20055;-88
2021/06/07 02:30:55;;;;;;;84.57;43.10;;;16.20;99.90;;;;;;4976305;28;20423;-88
2021/06/07 02:33:21;;;;;;;72.55;41.85;;;16.20;99.90;;;;;;4976211;28;20050;-88
2021/06/07 02:35:48;;;;;;;77.35;41.13;;;16.10;99.90;;;;;;4976314;28;20055;-88
2021/06/07 02:38:15;;;;;;;85.13;42.85;;;16.10;99.90;;;;;;4977407;28;20053;-88
2021/06/07 02:40:45;;;;;;;72.75;41.05;;;16.00;99.90;;;;;;4975649;28;20054;-88
2021/06/07 02:43:13;;;;;;;90.20;44.03;;;16.10;99.90;;;;;;4975995;28;20057;-88
2021/06/07 02:45:40;;;;;;;91.93;44.88;;;16.00;99.90;;;;;;4976222;28;20051;-88
2021/06/07 02:48:07;;;;;;;85.25;42.55;;;16.00;99.90;;;;;;4960195;28;20054;-88
2021/06/07 02:50:40;;;;;;;83.25;42.72;;;15.90;99.90;;;;;;4976395;28;20057;-88
2021/06/07 02:53:07;;;;;;;79.05;41.88;;;15.90;99.90;;;;;;4976145;28;20063;-88
2021/06/07 02:55:38;;;;;;;87.30;42.65;;;15.90;99.90;;;;;;4977329;28;20053;-89
2021/06/07 02:58:06;;;;;;;79.22;43.75;;;15.90;99.90;;;;;;4993971;28;20081;-88
2021/06/07 03:00:48;;;;;;;100.72;45.97;;;16.00;99.90;;;;;;4977123;28;20369;-88
2021/06/07 03:03:15;;;;;;;80.20;43.17;;;16.00;99.90;;;;;;4975843;28;20050;-88
2021/06/07 03:05:43;;;;;;;90.88;43.35;;;15.90;99.90;;;;;;4973836;28;20407;-88
2021/06/07 03:08:12;;;;;;;78.10;41.03;;;16.00;99.90;;;;;;4976567;28;20495;-88
2021/06/07 03:10:40;;;;;;;86.03;43.22;;;16.00;99.90;;;;;;4976881;28;20057;-87
2021/06/07 03:13:07;;;;;;;98.68;45.42;;;15.90;99.90;;;;;;4959588;28;20141;-88
2021/06/07 03:15:35;;;;;;;95.43;45.28;;;15.90;99.90;;;;;;4975751;28;20074;-87
2021/06/07 03:18:04;;;;;;;104.63;45.95;;;15.80;99.90;;;;;;4976714;28;20046;-87
2021/06/07 03:20:32;;;;;;;100.85;46.90;;;15.80;99.90;;;;;;4975476;28;20047;-87
2021/06/07 03:23:03;;;;;;;88.03;44.55;;;15.80;99.90;;;;;;4959330;28;20509;-87
2021/06/07 03:25:36;;;;;;;93.95;44.72;;;15.90;99.90;;;;;;4975402;28;20057;-87
2021/06/07 03:28:04;;;;;;;114.47;48.38;;;15.80;99.90;;;;;;4975591;28;20101;-87
2021/06/07 03:30:31;;;;;;;102.13;46.25;;;15.80;99.90;;;;;;4975284;28;20061;-87
2021/06/07 03:32:58;;;;;;;86.63;42.42;;;15.80;99.90;;;;;;4975975;28;20061;-88
2021/06/07 03:35:26;;;;;;;100.43;45.75;;;15.90;99.90;;;;;;4975132;28;20495;-88
2021/06/07 03:37:53;;;;;;;96.78;44.72;;;15.90;99.90;;;;;;4976399;28;20046;-87
2021/06/07 03:40:27;;;;;;;82.15;43.13;;;15.90;99.90;;;;;;4976339;28;20061;-88
2021/06/07 03:42:56;;;;;;;81.30;42.67;;;15.90;99.90;;;;;;4975274;28;20047;-88
2021/06/07 03:45:23;;;;;;;82.22;40.67;;;15.90;99.90;;;;;;4975058;28;20491;-87
2021/06/07 03:47:50;;;;;;;88.22;42.75;;;15.90;99.90;;;;;;4959171;28;20414;-88
2021/06/07 03:50:22;;;;;;;79.78;41.13;;;15.90;99.90;;;;;;4975035;28;20066;-88
2021/06/07 03:52:49;;;;;;;101.07;45.10;;;15.90;99.90;;;;;;4975255;28;20110;-88
2021/06/07 03:55:19;;;;;;;82.07;40.45;;;15.90;99.90;;;;;;4974631;28;20042;-88
2021/06/07 03:57:46;;;;;;;83.22;40.58;;;15.90;99.90;;;;;;4975106;28;20047;-88
2021/06/07 04:00:18;;;;;;;82.90;40.60;;;15.90;99.90;;;;;;4974804;28;20058;-88
2021/06/07 04:02:45;;;;;;;80.82;40.35;;;15.90;99.90;;;;;;4975868;28;20500;-88
2021/06/07 04:05:13;;;;;;;97.50;43.67;;;16.00;99.90;;;;;;4974438;28;20571;-88
2021/06/07 04:07:40;;;;;;;88.13;43.47;;;15.90;99.90;;;;;;4976457;28;20145;-87
2021/06/07 04:10:10;;;;;;;93.47;43.20;;;15.90;99.90;;;;;;4974587;28;20066;-88
2021/06/07 04:12:37;;;;;;;80.13;40.88;;;15.80;99.90;;;;;;4958664;28;20055;-88
2021/06/07 04:15:07;;;;;;;77.00;39.38;;;15.80;99.90;;;;;;4984500;28;20047;-88
2021/06/07 04:17:35;;;;;;;84.00;41.40;;;15.80;99.90;;;;;;4988376;28;20051;-88
2021/06/07 04:20:08;;;;;;;93.20;42.83;;;15.80;99.90;;;;;;4975064;28;20054;-88
2021/06/07 04:22:39;;;;;;;97.60;43.70;;;15.80;99.90;;;;;;4974323;28;20066;-88
2021/06/07 04:25:07;;;;;;;84.60;41.22;;;15.90;99.90;;;;;;4974141;28;20127;-88
2021/06/07 04:27:34;;;;;;;75.65;40.22;;;15.90;99.90;;;;;;4974142;28;20559;-88
2021/06/07 04:30:05;;;;;;;105.47;46.90;;;15.90;99.90;;;;;;4974407;28;20069;-86
2021/06/07 04:32:33;;;;;;;81.65;39.67;;;15.80;99.90;;;;;;4974109;28;20483;-89
2021/06/07 04:35:01;;;;;;;93.55;43.10;;;15.80;99.90;;;;;;4973912;28;20051;-89
2021/06/07 04:37:28;;;;;;;76.00;40.60;;;15.80;99.90;;;;;;4973804;28;20047;-87
2021/06/07 04:39:56;;;;;;;82.18;41.03;;;15.90;99.90;;;;;;4974910;28;20484;-88
2021/06/07 04:42:23;;;;;;;69.90;38.58;;;16.00;99.90;;;;;;4974012;28;20410;-88
2021/06/07 04:44:50;;;;;;;98.60;44.53;;;16.00;99.90;;;;;;4973748;28;20054;-87
2021/06/07 04:47:17;;;;;;;92.38;43.67;;;16.00;99.90;;;;;;4974536;28;20481;-88
2021/06/07 04:49:44;;;;;;;90.75;42.63;;;16.00;99.90;;;;;;4973804;28;20158;-87
2021/06/07 04:52:11;;;;;;;77.68;40.67;;;16.00;99.90;;;;;;4973681;28;20055;-88
2021/06/07 04:54:38;;;;;;;90.72;43.25;;;15.90;99.90;;;;;;4973707;28;20050;-87
2021/06/07 04:57:05;;;;;;;80.03;40.38;;;15.90;99.90;;;;;;4973542;28;20065;-88
2021/06/07 04:59:32;;;;;;;85.10;42.58;;;15.90;99.90;;;;;;4973664;28;20102;-88
2021/06/07 05:01:59;;;;;;;83.03;43.30;;;15.90;99.90;;;;;;4974597;28;20106;-88
2021/06/07 05:04:25;;;;;;;83.82;42.90;;;15.90;99.90;;;;;;4973462;28;20113;-87
2021/06/07 05:06:56;;;;;;;82.15;42.65;;;16.00;99.90;;;;;;4972933;28;20077;-87
2021/06/07 05:09:23;;;;;;;89.50;43.75;;;16.00;99.90;;;;;;4973511;28;20133;-88
2021/06/07 05:11:52;;;;;;;85.43;42.63;;;16.00;99.90;;;;;;4973669;28;20085;-87
2021/06/07 05:14:19;;;;;;;77.78;40.70;;;16.00;99.90;;;;;;4973744;28;20065;-87
2021/06/07 05:16:45;;;;;;;76.15;40.42;;;16.00;99.90;;;;;;4973709;28;20114;-88
2021/06/07 05:19:12;;;;;;;75.10;41.03;;;16.00;99.90;;;;;;4973490;28;20054;-87
2021/06/07 05:21:39;;;;;;;66.10;37.78;;;16.10;99.90;;;;;;4973610;28;20051;-88
2021/06/07 05:24:06;;;;;;;75.57;40.13;;;16.20;99.90;;;;;;4974052;28;20430;-88
2021/06/07 05:26:33;;;;;;;70.25;38.05;;;16.10;99.90;;;;;;4957480;28;20055;-87
2021/06/07 05:28:59;;;;;;;81.57;45.53;;;16.20;99.90;;;;;;4974583;28;20138;-87
2021/06/07 05:31:26;;;;;;;79.93;42.35;;;16.10;99.90;;;;;;4975792;28;20054;-87
2021/06/07 05:33:53;;;;;;;74.85;38.78;;;16.20;99.90;;;;;;4997434;28;20043;-87
2021/06/07 05:36:20;;;;;;;65.88;36.33;;;16.20;99.90;;;;;;4983261;28;20488;-87
2021/06/07 05:38:46;;;;;;;67.03;35.80;;;16.30;99.90;;;;;;4978709;28;20119;-87
2021/06/07 05:41:13;;;;;;;60.83;35.80;;;16.30;99.90;;;;;;4979681;28;20540;-87
2021/06/07 05:43:40;;;;;;;64.20;34.85;;;16.30;99.90;;;;;;4973369;28;20106;-87
2021/06/07 05:46:07;;;;;;;54.15;32.35;;;16.30;99.90;;;;;;4973290;28;20142;-88
2021/06/07 05:48:34;;;;;;;53.05;31.77;;;16.40;99.90;;;;;;4957509;28;20062;-88
2021/06/07 05:51:00;;;;;;;57.08;32.10;;;16.40;99.90;;;;;;4973444;28;20467;-87
2021/06/07 05:53:27;;;;;;;56.53;31.52;;;16.50;99.90;;;;;;4957468;28;20046;-89
2021/06/07 05:55:54;;;;;;;56.22;32.38;;;16.50;99.90;;;;;;4973220;28;20424;-89
2021/06/07 05:58:22;;;;;;;57.13;33.10;;;16.60;99.90;;;;;;4973070;28;20046;-88
2021/06/07 06:00:51;;;;;;;49.47;31.17;;;16.60;99.90;;;;;;4957036;28;20520;-88
2021/06/07 06:03:19;;;;;;;49.65;30.92;;;16.60;99.90;;;;;;4974167;28;20055;-88
2021/06/07 06:05:46;;;;;;;47.65;29.63;;;16.70;99.90;;;;;;4972869;28;20047;-88
2021/06/07 06:08:13;;;;;;;59.28;33.83;;;16.70;99.90;;;;;;4972868;28;20051;-87
2021/06/07 06:10:40;;;;;;;47.95;28.48;;;16.60;99.90;;;;;;4974039;28;20053;-88
2021/06/07 06:13:27;;;;;;;53.63;32.15;;;16.70;99.90;;;;;;4959923;28;20055;-88
2021/06/07 06:15:54;;;;;;;51.53;29.05;;;16.50;99.90;;;;;;4974734;28;20146;-87
2021/06/07 06:18:21;;;;;;;49.67;28.90;;;16.50;99.90;;;;;;4976675;28;20046;-88
2021/06/07 06:20:47;;;;;;;51.65;29.95;;;16.60;99.90;;;;;;4975477;28;20058;-87
2021/06/07 06:23:14;;;;;;;41.63;27.20;;;16.80;99.90;;;;;;4976236;28;20055;-88
2021/06/07 06:25:41;;;;;;;46.90;28.88;;;16.80;99.90;;;;;;4976209;28;20047;-88
2021/06/07 06:28:11;;;;;;;48.20;28.85;;;16.80;99.90;;;;;;4977174;28;20051;-86
2021/06/07 06:30:38;;;;;;;49.17;29.33;;;16.80;99.90;;;;;;4977581;28;20511;-87
2021/06/07 06:33:05;;;;;;;48.42;28.95;;;16.80;99.90;;;;;;4959993;28;20055;-87
2021/06/07 06:35:32;;;;;;;49.78;29.27;;;16.80;99.90;;;;;;4976210;28;20114;-88
2021/06/07 06:38:00;;;;;;;44.13;27.73;;;16.70;99.90;;;;;;4976409;28;20059;-88
2021/06/07 06:40:29;;;;;;;54.70;30.92;;;16.80;99.90;;;;;;4976271;28;20055;-87
2021/06/07 06:42:58;;;;;;;47.88;27.83;;;16.80;99.90;;;;;;4976423;28;20055;-88
2021/06/07 06:45:27;;;;;;;50.72;30.63;;;16.90;99.90;;;;;;4960439;28;20057;-89
2021/06/07 06:47:57;;;;;;;45.85;28.00;;;17.10;99.90;;;;;;4976496;28;20252;-88
2021/06/07 06:50:34;;;;;;;43.90;26.58;;;17.20;99.90;;;;;;4961273;28;20058;-87
2021/06/07 06:53:04;;;;;;;44.05;28.02;;;17.20;99.90;;;;;;4993520;28;20041;-89
2021/06/07 06:55:32;;;;;;;43.30;27.20;;;17.30;99.90;;;;;;4980539;28;20106;-89
2021/06/07 06:57:59;;;;;;;39.53;26.33;;;17.30;99.90;;;;;;4976194;28;20262;-88
2021/06/07 07:00:27;;;;;;;46.55;28.27;;;17.40;99.90;;;;;;4976006;28;20058;-90
2021/06/07 07:02:53;;;;;;;40.95;26.50;;;17.40;99.90;;;;;;4976073;28;20047;-90
2021/06/07 07:05:20;;;;;;;40.65;26.98;;;17.30;99.90;;;;;;4975750;28;20478;-89
2021/06/07 07:07:47;;;;;;;47.22;27.02;;;17.30;99.90;;;;;;4975694;28;20411;-88
2021/06/07 07:10:14;;;;;;;43.47;26.13;;;17.30;99.90;;;;;;4975915;28;20059;-88
2021/06/07 07:12:41;;;;;;;45.42;27.25;;;17.40;99.90;;;;;;4960033;28;20415;-88
2021/06/07 07:15:08;;;;;;;44.22;26.73;;;17.30;99.90;;;;;;4975722;28;20139;-88
2021/06/07 07:17:35;;;;;;;40.92;27.15;;;17.40;99.90;;;;;;4959626;28;20079;-88
2021/06/07 07:20:03;;;;;;;41.53;26.20;;;17.40;99.90;;;;;;4976670;28;20051;-89
2021/06/07 07:22:30;;;;;;;40.13;26.17;;;17.40;99.90;;;;;;4975529;28;20142;-88
2021/06/07 07:24:57;;;;;;;45.80;27.45;;;17.40;99.90;;;;;;4975449;28;20055;-86
2021/06/07 07:27:24;;;;;;;41.45;26.70;;;17.50;99.90;;;;;;4975095;28;20634;-88
2021/06/07 07:29:51;;;;;;;40.38;26.83;;;17.50;99.90;;;;;;4975585;28;20411;-88
2021/06/07 07:32:17;;;;;;;43.65;25.38;;;17.60;99.90;;;;;;4975541;28;20134;-88
2021/06/07 07:34:47;;;;;;;39.67;25.70;;;17.70;99.90;;;;;;4975478;28;20054;-88
2021/06/07 07:37:14;;;;;;;37.58;25.90;;;17.80;99.90;;;;;;4975335;28;20141;-88
2021/06/07 07:39:41;;;;;;;37.50;25.42;;;17.90;99.90;;;;;;4975303;28;20046;-89
2021/06/07 07:42:08;;;;;;;37.55;23.40;;;17.90;99.90;;;;;;4975606;28;20142;-88
2021/06/07 07:44:35;;;;;;;33.25;21.88;;;18.00;99.90;;;;;;4959729;28;20109;-88
2021/06/07 07:47:06;;;;;;;32.78;22.05;;;18.20;99.90;;;;;;4959370;28;20042;-88
2021/06/07 07:49:34;;;;;;;28.25;20.38;;;18.20;99.90;;;;;;4975170;28;20141;-88
2021/06/07 07:52:03;;;;;;;29.70;20.25;;;18.20;99.90;;;;;;4974953;28;20054;-89
2021/06/07 07:54:31;;;;;;;30.85;19.83;;;18.20;99.90;;;;;;4975940;28;20058;-88
2021/06/07 07:56:58;;;;;;;29.42;19.35;;;18.20;99.90;;;;;;4974803;28;20480;-88
2021/06/07 07:59:25;;;;;;;25.20;18.02;;;18.30;99.90;;;;;;4959016;28;20068;-88
2021/06/07 08:01:52;;;;;;;35.83;20.50;;;18.40;99.90;;;;;;4958778;28;20046;-88
2021/06/07 08:04:18;;;;;;;26.30;18.23;;;18.40;99.90;;;;;;4974757;28;20054;-88
2021/06/07 08:06:45;;;;;;;30.48;19.67;;;18.50;99.90;;;;;;4974457;28;20125;-88
2021/06/07 08:09:13;;;;;;;24.98;18.23;;;18.60;99.90;;;;;;4975711;28;20057;-88
2021/06/07 08:11:40;;;;;;;26.08;18.08;;;18.80;99.90;;;;;;4990956;28;20066;-87
2021/06/07 08:14:07;;;;;;;26.23;19.13;;;18.90;99.90;;;;;;4976772;28;20415;-88
2021/06/07 08:16:34;;;;;;;26.30;18.40;;;18.90;99.90;;;;;;4974600;28;20138;-88
2021/06/07 08:19:01;;;;;;;28.90;17.90;;;19.00;99.90;;;;;;4974707;28;20482;-88
2021/06/07 08:21:28;;;;;;;23.38;16.42;;;19.20;99.90;;;;;;4974876;28;20058;-88
2021/06/07 08:23:54;;;;;;;22.30;17.23;;;19.50;99.90;;;;;;4974897;28;20051;-89
2021/06/07 08:26:21;;;;;;;26.23;16.95;;;19.60;99.90;;;;;;4974523;28;20054;-88
2021/06/07 08:28:48;;;;;;;26.58;18.25;;;19.60;99.90;;;;;;4974583;28;20054;-89
2021/06/07 08:31:15;;;;;;;21.10;15.18;;;19.80;99.90;;;;;;4974615;28;20134;-88
2021/06/07 08:33:41;;;;;;;30.08;18.33;;;19.90;99.90;;;;;;4974663;28;20074;-87
2021/06/07 08:36:08;;;;;;;21.15;16.77;;;20.00;99.90;;;;;;4975377;28;20057;-88
2021/06/07 08:38:35;;;;;;;23.27;17.83;;;20.00;99.90;;;;;;4974034;28;20479;-88
2021/06/07 08:41:03;;;;;;;20.50;16.00;;;20.30;99.90;;;;;;4974284;28;20098;-89
2021/06/07 08:43:29;;;;;;;18.83;16.10;;;20.60;99.90;;;;;;4974527;28;20145;-88
2021/06/07 08:46:02;;;;;;;24.73;17.40;;;20.90;99.90;;;;;;4974432;28;20074;-88
2021/06/07 08:48:29;;;;;;;19.88;15.60;;;21.00;99.90;;;;;;4974237;28;20047;-89
2021/06/07 08:51:01;;;;;;;27.63;17.20;;;21.30;99.90;;;;;;4974280;28;20555;-87
2021/06/07 08:53:28;;;;;;;19.38;16.40;;;21.30;99.90;;;;;;4958267;28;20076;-87
2021/06/07 08:55:55;;;;;;;22.63;16.45;;;21.60;99.90;;;;;;4973787;28;20133;-88
2021/06/07 08:58:23;;;;;;;21.42;16.33;;;21.90;99.90;;;;;;4957635;28;20074;-88
2021/06/07 09:00:49;;;;;;;20.92;16.35;;;22.10;99.90;;;;;;4973896;28;20050;-87
2021/06/07 09:03:20;;;;;;;19.77;15.40;;;22.20;99.90;;;;;;4973848;28;20051;-89
2021/06/07 09:05:53;;;;;;;20.02;16.05;;;22.50;99.90;;;;;;4967759;28;20130;-88
2021/06/07 09:08:25;;;;;;;22.58;16.98;;;22.90;99.90;;;;;;4954772;29;20051;-88
2021/06/07 09:10:53;;;;;;;26.27;18.20;;;22.90;99.90;;;;;;4954947;29;20394;-89
2021/06/07 09:13:22;;;;;;;23.88;16.27;;;22.90;99.90;;;;;;4954738;29;20150;-87
2021/06/07 09:15:50;;;;;;;20.98;15.68;;;23.20;99.90;;;;;;4954808;28;20484;-88
2021/06/07 09:18:43;;;;;;;20.70;16.38;;;23.60;99.90;;;;;;4954735;29;20552;-88
2021/06/07 09:21:14;;;;;;;21.52;16.17;;;23.80;99.90;;;;;;4954698;29;20061;-89
2021/06/07 09:23:50;;;;;;;24.85;17.77;;;23.40;99.90;;;;;;4954810;29;20051;-87
2021/06/07 09:26:25;;;;;;;21.50;16.55;;;23.50;99.90;;;;;;4954981;29;20051;-87
2021/06/07 09:28:54;;;;;;;21.80;17.25;;;23.40;99.90;;;;;;4956816;29;20055;-89
2021/06/07 09:31:39;;;;;;;25.50;17.55;;;23.20;99.90;;;;;;4971000;28;20083;-88
2021/06/07 09:34:08;;;;;;;24.80;18.08;;;23.20;99.90;;;;;;4954302;29;20078;-86
2021/06/07 09:36:40;;;;;;;21.23;18.05;;;23.00;99.90;;;;;;4953936;29;20456;-88
2021/06/07 09:39:17;;;;;;;29.02;18.50;;;23.10;99.90;;;;;;4953940;29;20047;-87
2021/06/07 09:41:53;;;;;;;21.00;17.33;;;23.70;99.90;;;;;;4954273;29;20154;-90
2021/06/07 09:44:31;;;;;;;21.38;17.13;;;23.60;99.90;;;;;;4954468;29;20055;-90
2021/06/07 09:47:26;;;;;;;24.80;18.63;;;23.90;99.90;;;;;;4954001;29;20051;-89
2021/06/07 09:49:59;;;;;;;26.95;17.35;;;24.30;99.90;;;;;;4954658;28;20483;-89
2021/06/07 09:52:30;;;;;;;23.13;18.60;;;24.60;99.90;;;;;;4957825;29;20051;-90
2021/06/07 09:55:11;;;;;;;24.27;16.30;;;24.50;99.90;;;;;;4957617;29;20107;-89
2021/06/07 09:58:01;;;;;;;20.45;16.58;;;24.60;99.90;;;;;;4958175;29;20051;-90
2021/06/07 10:00:41;;;;;;;22.17;17.42;;;24.80;99.90;;;;;;4958201;29;20051;-89
2021/06/07 10:03:31;;;;;;;22.23;17.33;;;24.60;99.90;;;;;;4961371;29;20047;-89
2021/06/07 10:06:01;;;;;;;21.42;16.48;;;24.90;99.90;;;;;;4964634;28;20063;-89
2021/06/07 10:08:40;;;;;;;17.23;14.77;;;25.50;99.90;;;;;;4957533;29;20053;-89
2021/06/07 10:11:17;;;;;;;22.08;16.70;;;26.70;99.90;;;;;;4941630;29;20066;-88
2021/06/07 10:13:44;;;;;;;26.23;19.63;;;26.80;99.90;;;;;;4941651;29;20062;-89
2021/06/07 10:16:11;;;;;;;27.92;19.33;;;26.10;99.90;;;;;;4941331;29;20059;-89
2021/06/07 10:18:38;;;;;;;24.92;18.17;;;25.50;99.90;;;;;;4944238;28;20043;-88
2021/06/07 10:21:05;;;;;;;21.98;17.05;;;25.30;99.90;;;;;;4957305;28;20410;-90
2021/06/07 10:23:34;;;;;;;22.00;17.85;;;25.10;99.90;;;;;;4992208;28;20047;-89
2021/06/07 10:26:04;;;;;;;26.08;18.90;;;25.30;99.90;;;;;;4992568;28;20124;-91
2021/06/07 10:28:35;;;;;;;22.52;15.90;;;25.40;99.90;;;;;;4992741;28;20517;-89
2021/06/07 10:31:15;;;;;;;21.23;17.00;;;26.10;99.90;;;;;;4992009;28;20137;-86
2021/06/07 10:33:54;;;;;;;29.23;18.20;;;27.60;99.90;;;;;;4992330;28;20086;-88
2021/06/07 10:36:20;;;;;;;18.95;14.82;;;29.30;99.90;;;;;;4992216;28;20051;-89
2021/06/07 10:38:49;;;;;;;28.20;17.27;;;31.00;99.90;;;;;;4974121;28;20055;-88
2021/06/07 10:41:20;;;;;;;17.85;14.35;;;30.90;96.70;;;;;;4991909;28;20043;-91
2021/06/07 10:43:53;;;;;;;19.75;16.13;;;30.40;97.80;;;;;;4976254;28;20059;-90
2021/06/07 10:46:33;;;;;;;23.63;17.13;;;29.90;97.80;;;;;;4992626;28;20110;-91
2021/06/07 10:49:03;;;;;;;21.38;17.38;;;30.00;98.00;;;;;;4991166;28;20053;-90
2021/06/07 10:51:33;;;;;;;19.23;16.02;;;29.00;98.60;;;;;;5003917;28;20141;-90
2021/06/07 10:54:28;;;;;;;18.58;16.58;;;28.60;99.60;;;;;;4992360;28;20050;-91
2021/06/07 10:56:54;;;;;;;24.27;17.58;;;28.20;99.90;;;;;;4975163;28;20058;-89
2021/06/07 10:59:21;;;;;;;23.67;18.15;;;27.90;99.90;;;;;;4992267;28;20065;-89
2021/06/07 11:01:50;;;;;;;27.05;17.55;;;26.70;99.90;;;;;;4991275;28;20134;-90
2021/06/07 11:04:36;;;;;;;19.08;16.55;;;26.60;99.90;;;;;;4976236;28;20051;-88
2021/06/07 11:07:10;;;;;;;24.30;16.25;;;26.70;99.90;;;;;;4992568;28;20101;-89
2021/06/07 11:10:08;;;;;;;21.85;14.88;;;27.10;99.90;;;;;;4978898;28;20541;-90
2021/06/07 11:12:37;;;;;;;25.35;16.05;;;28.80;99.90;;;;;;4995348;28;20126;-88
2021/06/07 11:15:14;;;;;;;19.55;15.80;;;29.90;99.90;;;;;;4979784;28;20058;-87
2021/06/07 11:17:42;;;;;;;18.25;15.77;;;30.30;96.50;;;;;;4979335;28;20133;-88
2021/06/07 11:20:10;;;;;;;22.08;17.45;;;31.40;93.30;;;;;;4978924;28;20054;-89
2021/06/07 11:23:03;;;;;;;17.90;14.32;;;30.80;91.70;;;;;;4979223;28;20042;-89
2021/06/07 11:25:43;;;;;;;18.35;15.25;;;30.70;92.90;;;;;;4978673;28;20141;-90
2021/06/07 11:28:42;;;;;;;25.55;15.90;;;30.50;92.30;;;;;;4978456;28;20472;-89
2021/06/07 11:31:15;;;;;;;22.23;16.55;;;29.70;93.40;;;;;;4978306;28;20137;-89
2021/06/07 11:33:55;;;;;;;20.33;16.05;;;29.60;94.10;;;;;;4994745;28;20081;-88
2021/06/07 11:36:40;;;;;;;27.52;16.48;;;29.70;96.10;;;;;;4994784;28;20120;-88
2021/06/07 11:39:28;;;;;;;21.50;16.42;;;28.90;99.00;;;;;;4980930;28;20065;-88
2021/06/07 11:42:00;;;;;;;22.90;16.92;;;28.90;99.90;;;;;;4977999;28;20521;-89
2021/06/07 11:44:42;;;;;;;24.30;18.17;;;27.40;99.90;;;;;;4994350;28;20133;-89
2021/06/07 11:47:12;;;;;;;24.83;17.73;;;26.80;99.90;;;;;;4992820;28;20050;-87
2021/06/07 11:49:57;;;;;;;21.65;17.35;;;26.80;99.90;;;;;;4978372;28;20050;-91
2021/06/07 11:52:33;;;;;;;23.02;17.35;;;27.40;99.90;;;;;;4993881;28;20068;-87
2021/06/07 11:55:28;;;;;;;23.92;15.75;;;28.30;99.90;;;;;;4994077;28;20172;-93
2021/06/07 11:58:18;;;;;;;19.33;15.55;;;28.50;99.90;;;;;;4978274;28;20070;-91
2021/06/07 12:00:48;;;;;;;21.23;15.13;;;28.10;99.90;;;;;;4978053;28;20133;-90
2021/06/07 12:03:19;;;;;;;15.05;13.15;;;27.70;99.90;;;;;;4977569;28;20058;-89
2021/06/07 12:05:47;;;;;;;19.67;14.50;;;28.50;99.90;;;;;;4974337;28;20058;-88
2021/06/07 12:08:17;;;;;;;16.05;13.35;;;29.00;97.50;;;;;;5002945;28;20050;-87
2021/06/07 12:10:56;;;;;;;18.13;13.88;;;28.40;99.10;;;;;;4997582;28;20059;-89
2021/06/07 12:13:51;;;;;;;15.27;12.90;;;27.70;99.90;;;;;;4973666;28;20512;-90
2021/06/07 12:16:18;;;;;;;14.18;11.80;;;28.00;99.90;;;;;;4990940;28;20046;-88
2021/06/07 12:18:48;;;;;;;20.25;12.95;;;28.30;99.90;;;;;;4992473;28;20059;-89
2021/06/07 12:21:22;;;;;;;18.48;13.32;;;28.20;99.20;;;;;;4991111;28;20054;-88
2021/06/07 12:23:58;;;;;;;15.50;12.57;;;28.00;99.10;;;;;;4991319;28;20068;-89
2021/06/07 12:29:42;;;;;;;30.92;14.98;;;27.90;99.90;;;;;;4974822;28;20057;-88
2021/06/07 12:32:21;;;;;;;19.90;13.73;;;27.00;99.90;;;;;;4989826;28;20129;-92
2021/06/07 12:35:05;;;;;;;16.58;14.73;;;26.90;99.90;;;;;;4991306;28;20055;-88
2021/06/07 12:37:39;;;;;;;22.52;14.73;;;26.90;99.90;;;;;;4991631;28;20384;-90
2021/06/07 12:40:22;;;;;;;18.95;13.95;;;26.40;99.90;;;;;;4990255;28;20057;-89
2021/06/07 12:43:02;;;;;;;21.52;15.05;;;26.40;99.90;;;;;;4987177;28;20563;-90
2021/06/07 12:45:35;;;;;;;21.15;15.63;;;26.20;99.90;;;;;;4990114;28;20407;-86
2021/06/07 12:48:23;;;;;;;17.40;14.57;;;26.10;99.90;;;;;;4990201;28;20105;-89
2021/06/07 12:50:52;;;;;;;20.75;14.55;;;26.30;99.90;;;;;;4990523;28;20056;-93
2021/06/07 12:53:22;;;;;;;17.17;13.85;;;26.20;99.90;;;;;;4973854;28;20085;-90